createdAt,value
2023-02-27T00:04:57.837Z,17.45
2023-02-27T00:14:59.092Z,17.46
2023-02-27T00:25:01.608Z,17.50
2023-02-27T00:35:02.867Z,17.51
2023-02-27T00:45:04.099Z,17.54
2023-02-27T00:55:05.453Z,17.56
2023-02-27T01:05:06.678Z,17.58
2023-02-27T01:15:08.019Z,17.61
2023-02-27T01:25:09.812Z,17.62
2023-02-27T01:35:11.109Z,17.66
2023-02-27T01:45:12.481Z,17.64
2023-02-27T01:55:15.634Z,17.70
2023-02-27T02:05:16.934Z,17.69
2023-02-27T02:15:18.197Z,17.78
2023-02-27T02:25:19.450Z,17.77
2023-02-27T02:35:20.703Z,17.80
2023-02-27T02:45:21.996Z,17.76
2023-02-27T02:55:23.256Z,17.81
2023-02-27T03:05:24.560Z,17.86
2023-02-27T03:15:25.813Z,17.86
2023-02-27T03:25:27.078Z,17.94
2023-02-27T03:35:28.350Z,17.97
2023-02-27T03:45:29.657Z,17.97
2023-02-27T03:55:30.996Z,17.97
2023-02-27T04:05:32.300Z,17.97
2023-02-27T04:15:33.553Z,18.04
2023-02-27T04:25:34.862Z,17.97
2023-02-27T04:35:36.145Z,17.97
2023-02-27T04:45:37.510Z,17.99
2023-02-27T04:55:38.831Z,17.96
2023-02-27T05:05:40.084Z,17.98
2023-02-27T05:15:41.354Z,18.05
2023-02-27T05:25:42.638Z,17.98
2023-02-27T05:35:43.929Z,17.96
2023-02-27T05:45:45.350Z,17.93
2023-02-27T05:55:46.632Z,17.89
2023-02-27T06:05:47.959Z,17.93
2023-02-27T06:15:49.229Z,17.85
2023-02-27T06:36:19.581Z,17.94
2023-02-27T06:46:20.823Z,17.96
2023-02-27T06:56:22.379Z,17.97
2023-02-27T07:07:32.148Z,17.93
2023-02-27T07:16:45.123Z,17.99
2023-02-27T07:26:52.846Z,18.00
2023-02-27T07:37:00.281Z,18.00
2023-02-27T07:47:07.391Z,18.02
2023-02-27T07:57:15.838Z,18.04
2023-02-27T08:07:25.560Z,18.11
2023-02-27T08:17:33.329Z,18.20
2023-02-27T08:27:42.509Z,18.17
2023-02-27T08:37:51.254Z,18.18
2023-02-27T08:47:58.854Z,18.16
2023-02-27T08:58:06.845Z,18.15
2023-02-27T09:08:14.882Z,18.12
2023-02-27T09:18:22.865Z,18.09
2023-02-27T09:28:31.610Z,18.10
2023-02-27T09:38:41.484Z,18.03
2023-02-27T09:48:48.839Z,18.03
2023-02-27T09:58:56.008Z,18.03
2023-02-27T10:09:03.841Z,18.05
2023-02-27T10:19:13.581Z,18.07
2023-02-27T10:29:20.861Z,18.08
2023-02-27T10:39:31.701Z,18.04
2023-02-27T10:49:36.879Z,18.06
2023-02-27T10:59:47.470Z,18.08
2023-02-27T11:09:54.901Z,18.08
2023-02-27T11:20:05.195Z,18.07
2023-02-27T11:30:10.155Z,18.10
2023-02-27T11:40:19.282Z,18.07
2023-02-27T11:50:28.552Z,18.05
2023-02-27T12:00:35.900Z,18.06
2023-02-27T12:10:43.553Z,18.08
2023-02-27T12:20:54.488Z,18.14
2023-02-27T12:30:59.034Z,18.11
2023-02-27T12:41:06.012Z,18.14
2023-02-27T12:51:17.233Z,18.12
2023-02-27T13:01:24.978Z,18.10
2023-02-27T13:11:32.890Z,18.13
2023-02-27T13:21:42.657Z,18.15
2023-02-27T13:31:50.990Z,18.16
2023-02-27T13:41:58.884Z,18.16
2023-02-27T13:52:06.534Z,18.12
2023-02-27T14:02:13.741Z,18.12
2023-02-27T14:12:24.701Z,18.12
2023-02-27T14:22:30.180Z,18.09
2023-02-27T14:32:40.676Z,18.11
2023-02-27T14:42:48.905Z,18.11
2023-02-27T14:52:56.908Z,18.10
2023-02-27T15:03:04.502Z,18.09
2023-02-27T15:13:11.891Z,18.08
2023-02-27T15:23:20.987Z,18.10
2023-02-27T15:33:27.835Z,18.09
2023-02-27T15:43:39.112Z,18.04
2023-02-27T15:53:46.934Z,18.02
2023-02-27T16:03:54.952Z,17.99
2023-02-27T16:14:02.916Z,18.03
2023-02-27T16:24:13.409Z,18.03
2023-02-27T16:34:17.933Z,18.00
2023-02-27T16:44:30.857Z,17.99
2023-02-27T16:54:34.214Z,17.94
2023-02-27T17:04:42.426Z,17.89
2023-02-27T17:14:50.940Z,17.88
2023-02-27T17:24:52.490Z,17.85
2023-02-27T17:34:53.807Z,17.83
2023-02-27T17:44:55.181Z,17.81
2023-02-27T17:54:56.534Z,17.81
2023-02-27T18:04:58.043Z,17.77
2023-02-27T18:14:59.561Z,17.75
2023-02-27T18:25:01.263Z,17.74
2023-02-27T18:35:02.893Z,17.72
2023-02-27T18:45:04.151Z,17.68
2023-02-27T18:55:05.601Z,17.68
2023-02-27T19:05:07.134Z,17.68
2023-02-27T19:15:08.503Z,17.64
2023-02-27T19:25:09.725Z,17.64
2023-02-27T19:35:10.953Z,17.64
2023-02-27T19:45:12.507Z,17.61
2023-02-27T19:55:14.007Z,17.62
2023-02-27T20:05:15.408Z,17.56
2023-02-27T20:15:16.673Z,17.58
2023-02-27T20:25:18.203Z,17.58
2023-02-27T20:35:19.712Z,17.55
2023-02-27T20:45:21.110Z,17.52
2023-02-27T20:55:22.531Z,17.53
2023-02-27T21:05:23.853Z,17.50
2023-02-27T21:15:25.214Z,17.56
2023-02-27T21:25:26.737Z,17.52
2023-02-27T21:35:28.127Z,17.55
2023-02-27T21:45:29.391Z,17.54
2023-02-27T21:55:31.115Z,17.55
2023-02-27T22:05:32.606Z,17.50
2023-02-27T22:15:34.073Z,17.50
2023-02-27T22:25:35.414Z,17.57
2023-02-27T22:35:36.691Z,17.59
2023-02-27T22:45:38.082Z,17.59
2023-02-27T22:55:39.316Z,17.63
2023-02-27T23:05:40.852Z,17.61
2023-02-27T23:15:42.094Z,17.66
2023-02-27T23:25:43.385Z,17.73
2023-02-27T23:35:44.726Z,17.71
2023-02-27T23:45:46.050Z,17.74
2023-02-27T23:55:47.407Z,17.75
